William Penn Annex West, Pennsylvania
Current Conditions -  °F | °C
As of 8:54 PM on Friday 21 Nov 2014 (Local Time) from KPHL Reporting Station
Clear Clear  
Wind Chill: 24°   Ceiling: Unl
Heat Index: 32°   Visibility: 10mi
Dew Point:   Wind: 10mph
Humidity: 38%   Direction: 280°W
Pressure: 30.54"   Gusts: NA
Location:  39.9516°N, 75.1581°W
Report Text: KPHL 220154Z 28009KT 10SM CLR 00/M13 A3054 RMK AO2 SLP340 T00001128 $
Loading
Personal Weather Stations






























Interactive Weather Map New forecast layout! Learn more

10-Day Weather Forecast

Advertisements
Track Severe Weather on mobile